createdAt,value
2022-12-06T00:00:07.550Z,7.30
2022-12-06T00:02:45.711Z,7.30
2022-12-06T00:05:18.642Z,7.30
2022-12-06T00:07:51.455Z,7.30
2022-12-06T00:10:24.411Z,7.30
2022-12-06T00:12:57.157Z,7.20
2022-12-06T00:15:30.123Z,7.20
2022-12-06T00:18:03.337Z,7.20
2022-12-06T00:20:36.102Z,7.20
2022-12-06T00:23:08.829Z,7.20
2022-12-06T00:25:41.510Z,7.20
2022-12-06T00:28:14.230Z,7.20
2022-12-06T00:30:46.992Z,7.10
2022-12-06T00:33:19.730Z,7.10
2022-12-06T00:36:03.339Z,7.00
2022-12-06T00:38:36.919Z,7.00
2022-12-06T00:41:13.741Z,7.00
2022-12-06T00:43:47.092Z,7.00
2022-12-06T00:46:23.060Z,6.90
2022-12-06T00:48:58.022Z,6.80
2022-12-06T00:51:33.418Z,6.80
2022-12-06T00:54:07.580Z,6.80
2022-12-06T00:56:40.374Z,6.80
2022-12-06T00:59:13.244Z,6.70
2022-12-06T01:01:46.239Z,6.70
2022-12-06T01:04:19.026Z,6.70
2022-12-06T01:06:51.900Z,6.70
2022-12-06T01:09:24.689Z,6.70
2022-12-06T01:11:58.962Z,6.70
2022-12-06T01:14:31.690Z,6.70
2022-12-06T01:17:04.511Z,6.70
2022-12-06T01:19:37.656Z,6.80
2022-12-06T01:22:10.346Z,6.80
2022-12-06T01:24:42.970Z,6.80
2022-12-06T01:27:15.658Z,6.80
2022-12-06T01:29:48.226Z,6.80
2022-12-06T01:32:20.907Z,6.80
2022-12-06T01:34:53.833Z,6.80
2022-12-06T01:37:26.685Z,6.80
2022-12-06T01:39:59.657Z,6.80
2022-12-06T01:42:32.488Z,6.80
2022-12-06T01:45:06.055Z,6.80
2022-12-06T01:47:43.056Z,6.80
2022-12-06T01:50:22.363Z,6.80
2022-12-06T01:52:58.370Z,6.80
2022-12-06T01:55:35.268Z,6.80
2022-12-06T01:58:15.965Z,6.80
2022-12-06T02:00:48.739Z,6.80
2022-12-06T02:03:26.097Z,6.80
2022-12-06T02:05:59.887Z,6.80
2022-12-06T02:08:33.442Z,6.80
2022-12-06T02:11:06.471Z,6.80
2022-12-06T02:13:40.127Z,6.80
2022-12-06T02:16:35.075Z,6.80
2022-12-06T02:19:27.255Z,6.80
2022-12-06T02:22:24.786Z,6.70
2022-12-06T02:24:58.156Z,6.70
2022-12-06T02:27:49.886Z,6.50
2022-12-06T02:30:41.599Z,6.60
2022-12-06T02:33:23.935Z,6.50
2022-12-06T02:36:08.137Z,6.50
2022-12-06T02:38:58.192Z,6.50
2022-12-06T02:41:38.479Z,6.40
2022-12-06T02:44:21.183Z,6.40
2022-12-06T02:46:56.747Z,6.30
2022-12-06T02:49:34.405Z,6.30
2022-12-06T02:52:07.222Z,6.20
2022-12-06T02:54:41.684Z,6.30
2022-12-06T02:57:14.657Z,6.20
2022-12-06T02:59:55.424Z,6.20
2022-12-06T03:02:28.105Z,6.20
2022-12-06T03:05:08.441Z,6.10
2022-12-06T03:07:45.102Z,6.20
2022-12-06T03:10:19.676Z,6.20
2022-12-06T03:13:01.021Z,6.10
2022-12-06T03:15:55.299Z,6.20
2022-12-06T03:18:35.073Z,6.00
2022-12-06T03:21:14.031Z,6.00
2022-12-06T03:23:50.764Z,6.00
2022-12-06T03:26:30.046Z,6.00
2022-12-06T03:29:05.587Z,6.00
2022-12-06T03:31:40.759Z,6.00
2022-12-06T03:34:15.490Z,5.90
2022-12-06T03:36:51.113Z,5.80
2022-12-06T03:39:33.829Z,5.80
2022-12-06T03:42:06.935Z,5.80
2022-12-06T03:44:39.681Z,5.80
2022-12-06T03:47:17.602Z,5.80
2022-12-06T03:49:59.212Z,5.70
2022-12-06T03:52:33.839Z,5.70
2022-12-06T03:55:07.495Z,5.70
2022-12-06T03:57:40.039Z,5.70
2022-12-06T04:00:13.595Z,5.70
2022-12-06T04:02:46.330Z,5.70
2022-12-06T04:05:19.121Z,5.90
2022-12-06T04:07:51.913Z,5.60
2022-12-06T04:10:24.734Z,5.60
2022-12-06T04:13:07.125Z,5.60
2022-12-06T04:15:40.436Z,5.60
2022-12-06T04:18:14.659Z,5.60
2022-12-06T04:21:04.247Z,5.60
2022-12-06T04:23:39.480Z,5.60
2022-12-06T04:26:15.600Z,5.60
2022-12-06T04:29:04.868Z,5.50
2022-12-06T04:31:55.622Z,5.50
2022-12-06T04:34:43.740Z,5.40
2022-12-06T04:37:32.094Z,5.30
2022-12-06T04:40:05.499Z,5.30
2022-12-06T04:42:54.830Z,5.30
2022-12-06T04:45:27.490Z,5.30
2022-12-06T04:48:00.131Z,5.30
2022-12-06T04:50:32.774Z,5.30
2022-12-06T04:53:07.105Z,5.30
2022-12-06T04:55:39.657Z,5.30
2022-12-06T04:58:12.328Z,5.30
2022-12-06T05:00:45.631Z,5.30
2022-12-06T05:03:19.211Z,5.30
2022-12-06T05:05:52.555Z,5.20
2022-12-06T05:08:25.262Z,5.20
2022-12-06T05:10:58.101Z,5.20
2022-12-06T05:13:30.947Z,5.20
2022-12-06T05:16:06.414Z,5.20
2022-12-06T05:18:39.272Z,5.20
2022-12-06T05:21:16.304Z,5.10
2022-12-06T05:23:49.489Z,5.10
2022-12-06T05:26:24.646Z,5.00
2022-12-06T05:28:57.629Z,5.00
2022-12-06T05:31:30.240Z,5.00
2022-12-06T05:34:03.050Z,5.00
2022-12-06T05:36:35.597Z,5.00
2022-12-06T05:39:08.327Z,5.00
2022-12-06T05:41:41.103Z,5.00
2022-12-06T05:44:13.887Z,5.00
2022-12-06T05:46:46.598Z,4.90
2022-12-06T05:49:19.466Z,5.50
2022-12-06T05:51:52.154Z,4.90
2022-12-06T05:54:24.841Z,4.90
2022-12-06T05:56:57.520Z,4.80
2022-12-06T05:59:30.403Z,4.80
2022-12-06T06:02:02.992Z,4.80
2022-12-06T06:04:35.901Z,4.70
2022-12-06T06:07:08.467Z,4.70
2022-12-06T06:09:41.268Z,4.70
2022-12-06T06:12:14.403Z,4.70
2022-12-06T06:14:47.259Z,4.80
2022-12-06T06:17:19.970Z,4.70
2022-12-06T06:19:52.723Z,5.00
2022-12-06T06:22:25.354Z,4.70
2022-12-06T06:24:59.363Z,4.80
2022-12-06T06:27:37.259Z,4.80
2022-12-06T06:30:12.623Z,4.80
2022-12-06T06:32:45.271Z,4.80
2022-12-06T06:35:18.021Z,4.80
2022-12-06T06:37:50.682Z,4.90
2022-12-06T06:40:23.562Z,4.80
2022-12-06T06:42:57.306Z,4.80
2022-12-06T06:45:30.127Z,4.90
2022-12-06T06:48:06.145Z,4.80
2022-12-06T06:50:39.323Z,4.90
2022-12-06T06:53:12.245Z,4.90
2022-12-06T06:55:45.815Z,4.90
2022-12-06T06:58:18.466Z,4.90
2022-12-06T07:00:56.217Z,4.90
2022-12-06T07:03:30.304Z,4.80
2022-12-06T07:06:07.764Z,4.80
2022-12-06T07:08:41.968Z,4.90
2022-12-06T07:11:15.650Z,4.80
2022-12-06T07:13:52.680Z,4.90
2022-12-06T07:16:26.082Z,4.90
2022-12-06T07:18:58.748Z,4.90
2022-12-06T07:21:31.709Z,4.90
2022-12-06T07:24:04.897Z,5.00
2022-12-06T07:26:37.559Z,5.00
2022-12-06T07:29:10.332Z,5.00
2022-12-06T07:31:43.125Z,5.10
2022-12-06T07:34:16.817Z,5.10
2022-12-06T07:36:49.522Z,5.10
2022-12-06T07:39:22.315Z,5.10
2022-12-06T07:42:10.198Z,5.10
2022-12-06T07:45:02.669Z,5.10
2022-12-06T07:47:38.689Z,5.10
2022-12-06T07:50:18.440Z,5.20
2022-12-06T07:52:52.061Z,5.20
2022-12-06T07:55:24.969Z,5.20
2022-12-06T07:57:57.787Z,5.30
2022-12-06T08:00:30.752Z,5.40
2022-12-06T08:03:03.916Z,5.40
2022-12-06T08:05:36.683Z,5.50
2022-12-06T08:08:09.501Z,5.50
2022-12-06T08:10:42.218Z,5.60
2022-12-06T08:13:15.027Z,5.60
2022-12-06T08:15:47.907Z,5.70
2022-12-06T08:18:20.691Z,5.70
2022-12-06T08:20:53.544Z,5.80
2022-12-06T08:23:33.661Z,5.90
2022-12-06T08:26:10.518Z,5.90
2022-12-06T08:28:43.811Z,6.00
2022-12-06T08:31:21.610Z,6.10
2022-12-06T08:33:54.428Z,6.20
2022-12-06T08:36:29.050Z,6.20
2022-12-06T08:39:01.792Z,6.30
2022-12-06T08:41:50.862Z,6.60
2022-12-06T08:44:24.167Z,6.50
2022-12-06T08:46:58.990Z,6.50
2022-12-06T08:49:32.059Z,6.70
2022-12-06T08:52:05.005Z,6.60
2022-12-06T08:54:38.398Z,6.70
2022-12-06T08:57:11.097Z,6.70
2022-12-06T08:59:44.146Z,6.70
2022-12-06T09:02:16.819Z,6.80
2022-12-06T09:04:52.113Z,6.80
2022-12-06T09:07:26.767Z,6.90
2022-12-06T09:10:00.167Z,6.90
2022-12-06T09:12:33.234Z,7.00
2022-12-06T09:15:06.787Z,7.00
2022-12-06T09:17:39.376Z,7.10
2022-12-06T09:20:19.142Z,7.20
2022-12-06T09:22:51.772Z,7.30
2022-12-06T09:25:24.485Z,7.40
2022-12-06T09:27:58.310Z,7.40
2022-12-06T09:30:31.396Z,7.50
2022-12-06T09:33:04.058Z,7.60
2022-12-06T09:35:37.285Z,7.60
2022-12-06T09:38:10.031Z,7.70
2022-12-06T09:41:13.700Z,7.80
2022-12-06T09:44:07.198Z,7.80
2022-12-06T09:46:43.626Z,7.80
2022-12-06T09:49:42.978Z,7.90
2022-12-06T09:52:30.525Z,8.00
2022-12-06T09:55:11.207Z,8.00
2022-12-06T09:58:00.850Z,8.00
2022-12-06T10:00:45.093Z,8.10
2022-12-06T10:03:40.429Z,8.10
2022-12-06T10:06:16.815Z,8.20
2022-12-06T10:09:07.000Z,8.20
2022-12-06T10:11:55.276Z,8.20
2022-12-06T10:14:33.244Z,8.30
2022-12-06T10:17:09.804Z,8.30
2022-12-06T10:20:00.867Z,8.30
2022-12-06T10:22:49.278Z,8.40
2022-12-06T10:25:31.635Z,8.40
2022-12-06T10:28:13.936Z,8.50
2022-12-06T10:30:53.799Z,8.50
2022-12-06T10:33:30.291Z,8.60
2022-12-06T10:36:06.559Z,8.70
2022-12-06T10:38:49.484Z,8.70
2022-12-06T10:41:33.621Z,8.80
2022-12-06T10:44:20.611Z,8.80
2022-12-06T10:47:05.702Z,8.90
2022-12-06T10:49:54.101Z,8.90
2022-12-06T10:52:42.580Z,8.90
2022-12-06T10:55:32.619Z,9.00
2022-12-06T10:58:35.745Z,9.00
2022-12-06T11:01:21.674Z,9.00
2022-12-06T11:04:21.532Z,9.10
2022-12-06T11:06:59.317Z,9.10
2022-12-06T11:09:38.385Z,9.10
2022-12-06T11:12:31.545Z,9.20
2022-12-06T11:15:13.532Z,9.20
2022-12-06T11:17:58.020Z,9.30
2022-12-06T11:20:45.152Z,9.30
2022-12-06T11:23:26.388Z,9.40
2022-12-06T11:26:04.076Z,9.30
2022-12-06T11:28:42.308Z,9.40
2022-12-06T11:31:26.601Z,9.40
2022-12-06T11:34:00.479Z,11.10
2022-12-06T11:36:33.822Z,9.50
2022-12-06T11:39:09.487Z,9.50
2022-12-06T11:41:46.272Z,9.50
2022-12-06T11:44:26.855Z,9.50
2022-12-06T11:47:03.559Z,9.60
2022-12-06T11:49:42.236Z,9.60
2022-12-06T11:52:25.563Z,9.60
2022-12-06T11:55:04.557Z,9.60
2022-12-06T11:57:46.119Z,9.60
2022-12-06T12:00:25.747Z,9.50
2022-12-06T12:02:58.794Z,9.60
2022-12-06T12:05:36.656Z,9.60
2022-12-06T12:08:20.367Z,9.60
2022-12-06T12:11:03.056Z,9.60
2022-12-06T12:13:51.225Z,9.60
2022-12-06T12:16:37.589Z,9.70
2022-12-06T12:19:41.525Z,9.70
2022-12-06T12:22:30.150Z,9.70
2022-12-06T12:25:22.727Z,9.70
2022-12-06T12:27:58.201Z,9.60
2022-12-06T12:30:43.348Z,9.50
2022-12-06T12:33:20.055Z,9.50
2022-12-06T12:35:56.230Z,9.40
2022-12-06T12:38:45.330Z,9.40
2022-12-06T12:41:30.003Z,9.40
2022-12-06T12:44:36.473Z,9.40
2022-12-06T12:47:17.678Z,9.40
2022-12-06T12:50:08.260Z,9.40
2022-12-06T12:52:42.734Z,9.40
2022-12-06T12:55:16.948Z,9.40
2022-12-06T12:57:53.658Z,9.50
2022-12-06T13:00:31.103Z,9.50
2022-12-06T13:03:34.987Z,9.50
2022-12-06T13:06:06.449Z,9.60
2022-12-06T13:08:40.083Z,9.70
2022-12-06T13:11:13.016Z,9.70
2022-12-06T13:13:50.188Z,9.80
2022-12-06T13:16:32.988Z,9.80
2022-12-06T13:19:05.904Z,9.70
2022-12-06T13:21:45.871Z,9.70
2022-12-06T13:24:24.477Z,9.60
2022-12-06T13:27:12.152Z,9.60
2022-12-06T13:29:54.720Z,9.60
2022-12-06T13:32:36.692Z,9.50
2022-12-06T13:35:20.804Z,9.50
2022-12-06T13:37:57.970Z,9.50
2022-12-06T13:40:34.710Z,9.50
2022-12-06T13:43:27.777Z,9.40
2022-12-06T13:46:10.196Z,9.30
2022-12-06T13:48:59.744Z,9.30
2022-12-06T13:51:33.212Z,9.30
2022-12-06T13:54:06.907Z,9.30
2022-12-06T13:56:41.519Z,9.20
2022-12-06T13:59:15.451Z,9.20
2022-12-06T14:01:50.752Z,9.20
2022-12-06T14:09:45.196Z,9.20
2022-12-06T14:12:22.995Z,9.20
2022-12-06T14:15:06.300Z,9.20
2022-12-06T14:20:38.320Z,9.10
2022-12-06T14:23:26.377Z,9.10
2022-12-06T14:26:30.051Z,9.00
2022-12-06T14:29:03.194Z,9.00
2022-12-06T14:31:40.087Z,8.90
2022-12-06T14:34:27.211Z,9.70
2022-12-06T14:37:01.521Z,8.80
2022-12-06T14:39:34.731Z,8.70
2022-12-06T14:42:32.916Z,8.70
2022-12-06T14:45:13.578Z,8.60
2022-12-06T14:47:46.408Z,8.60
2022-12-06T14:50:26.330Z,8.60
2022-12-06T14:53:02.306Z,8.50
2022-12-06T14:55:38.076Z,8.50
2022-12-06T14:58:22.744Z,8.40
2022-12-06T15:00:57.456Z,8.30
2022-12-06T15:03:36.245Z,8.30
2022-12-06T15:06:19.668Z,8.30
2022-12-06T15:09:12.248Z,8.20
2022-12-06T15:12:00.812Z,8.20
2022-12-06T15:14:41.356Z,8.20
2022-12-06T15:17:14.765Z,8.10
2022-12-06T15:19:51.663Z,8.00
2022-12-06T15:22:28.280Z,8.00
2022-12-06T15:25:01.212Z,8.00
2022-12-06T15:27:34.521Z,7.90
2022-12-06T15:30:09.581Z,7.90
2022-12-06T15:32:42.476Z,7.90
2022-12-06T15:35:19.127Z,7.80
2022-12-06T15:37:51.975Z,7.70
2022-12-06T15:40:24.648Z,7.70
2022-12-06T15:43:02.176Z,7.60
2022-12-06T15:45:36.180Z,7.60
2022-12-06T15:48:09.949Z,7.60
2022-12-06T15:50:45.851Z,7.60
2022-12-06T15:53:20.922Z,7.50
2022-12-06T15:55:54.245Z,7.50
2022-12-06T15:58:27.531Z,7.40
2022-12-06T16:01:00.718Z,7.40
2022-12-06T16:03:33.557Z,7.40
2022-12-06T16:06:10.496Z,7.30
2022-12-06T16:08:44.224Z,7.30
2022-12-06T16:11:20.242Z,7.20
2022-12-06T16:13:53.375Z,7.10
2022-12-06T16:16:26.351Z,7.10
2022-12-06T16:18:59.192Z,7.10
2022-12-06T16:21:34.355Z,7.00
2022-12-06T16:24:14.186Z,7.00
2022-12-06T16:26:48.051Z,7.00
2022-12-06T16:29:25.350Z,6.90
2022-12-06T16:31:58.290Z,6.90
2022-12-06T16:34:31.177Z,6.90
2022-12-06T16:37:07.294Z,6.80
2022-12-06T16:39:40.128Z,6.80
2022-12-06T16:42:12.720Z,6.80
2022-12-06T16:44:52.590Z,6.70
2022-12-06T16:49:56.566Z,6.60
2022-12-06T16:52:30.534Z,6.60
2022-12-06T16:55:03.995Z,6.60
2022-12-06T16:57:37.068Z,6.60
2022-12-06T17:00:13.092Z,6.60
2022-12-06T17:02:45.823Z,6.60
2022-12-06T17:05:23.255Z,6.50
2022-12-06T17:07:56.678Z,6.50
2022-12-06T17:10:29.494Z,6.50
2022-12-06T17:13:02.677Z,6.50
2022-12-06T17:15:35.521Z,6.50
2022-12-06T17:18:08.484Z,6.50
2022-12-06T17:20:41.257Z,6.40
2022-12-06T17:23:15.722Z,6.40
2022-12-06T17:25:58.121Z,6.40
2022-12-06T17:28:30.784Z,6.40
2022-12-06T17:31:08.689Z,6.40
2022-12-06T17:33:41.523Z,6.40
2022-12-06T17:36:17.587Z,6.50
2022-12-06T17:38:54.263Z,6.40
2022-12-06T17:41:50.077Z,6.40
2022-12-06T17:44:24.761Z,6.40
2022-12-06T17:46:57.629Z,6.50
2022-12-06T17:49:30.406Z,6.50
2022-12-06T17:52:03.080Z,6.40
2022-12-06T17:54:35.736Z,6.40
2022-12-06T17:57:12.657Z,6.50
2022-12-06T17:59:47.939Z,6.50
2022-12-06T18:02:26.317Z,6.50
2022-12-06T18:04:59.757Z,6.50
2022-12-06T18:07:33.508Z,6.50
2022-12-06T18:10:07.211Z,6.50
2022-12-06T18:12:39.927Z,6.50
2022-12-06T18:15:32.938Z,6.40
2022-12-06T18:18:06.323Z,6.40
2022-12-06T18:20:40.135Z,6.40
2022-12-06T18:23:12.934Z,6.40
2022-12-06T18:25:46.083Z,6.40
2022-12-06T18:28:19.825Z,6.40
2022-12-06T18:30:52.618Z,6.30
2022-12-06T18:33:29.727Z,6.30
2022-12-06T18:36:05.496Z,6.30
2022-12-06T18:38:38.253Z,6.30
2022-12-06T18:41:17.045Z,6.30
2022-12-06T18:43:50.156Z,6.30
2022-12-06T18:46:24.957Z,6.30
2022-12-06T18:48:59.627Z,6.30
2022-12-06T18:51:34.434Z,6.30
2022-12-06T18:54:08.379Z,6.20
2022-12-06T18:56:42.673Z,6.20
2022-12-06T18:59:15.408Z,6.20
2022-12-06T19:01:48.226Z,6.20
2022-12-06T19:04:20.971Z,6.20
2022-12-06T19:06:54.736Z,6.10
2022-12-06T19:09:27.595Z,6.10
2022-12-06T19:12:00.242Z,6.00
2022-12-06T19:14:33.194Z,6.00
2022-12-06T19:17:07.909Z,5.90
2022-12-06T19:19:41.046Z,5.90
2022-12-06T19:22:13.744Z,5.80
2022-12-06T19:24:46.928Z,5.70
2022-12-06T19:27:20.746Z,5.70
2022-12-06T19:29:54.328Z,5.70
2022-12-06T19:32:27.838Z,5.70
2022-12-06T19:35:08.157Z,5.70
2022-12-06T19:37:41.993Z,5.70
2022-12-06T19:40:15.031Z,5.70
2022-12-06T19:43:03.023Z,5.70
2022-12-06T19:45:35.888Z,5.60
2022-12-06T19:48:08.566Z,5.60
2022-12-06T19:50:41.555Z,5.60
2022-12-06T19:53:14.284Z,5.60
2022-12-06T19:55:47.391Z,5.60
2022-12-06T19:58:21.164Z,5.50
2022-12-06T20:00:54.211Z,5.50
2022-12-06T20:03:28.260Z,5.50
2022-12-06T20:06:07.025Z,5.50
2022-12-06T20:08:39.964Z,5.50
2022-12-06T20:11:29.926Z,5.50
2022-12-06T20:14:07.147Z,5.60
2022-12-06T20:16:40.704Z,5.60
2022-12-06T20:19:16.444Z,5.70
2022-12-06T20:21:49.609Z,5.70
2022-12-06T20:24:23.395Z,5.70
2022-12-06T20:26:56.541Z,5.70
2022-12-06T20:29:30.295Z,5.70
2022-12-06T20:32:03.843Z,5.80
2022-12-06T20:34:36.775Z,5.80
2022-12-06T20:37:09.702Z,5.80
2022-12-06T20:39:42.595Z,5.80
2022-12-06T20:42:15.298Z,5.80
2022-12-06T20:44:47.953Z,5.80
2022-12-06T20:47:21.247Z,5.80
2022-12-06T20:49:53.974Z,5.80
2022-12-06T20:52:26.753Z,5.90
2022-12-06T20:54:59.431Z,6.00
2022-12-06T20:57:32.152Z,5.90
2022-12-06T21:00:07.878Z,6.00
2022-12-06T21:02:40.960Z,6.00
2022-12-06T21:05:13.705Z,5.90
2022-12-06T21:07:46.524Z,6.00
2022-12-06T21:10:19.269Z,6.00
2022-12-06T21:12:52.024Z,6.00
2022-12-06T21:15:24.714Z,6.10
2022-12-06T21:17:57.511Z,6.10
2022-12-06T21:20:30.235Z,6.10
2022-12-06T21:23:02.852Z,6.20
2022-12-06T21:25:38.258Z,6.20
2022-12-06T21:28:11.154Z,6.20
2022-12-06T21:30:49.755Z,6.20
2022-12-06T21:33:24.208Z,6.30
2022-12-06T21:36:01.762Z,6.20
2022-12-06T21:38:34.903Z,6.20
2022-12-06T21:41:11.072Z,6.30
2022-12-06T21:43:43.971Z,6.30
2022-12-06T21:46:20.312Z,6.30
2022-12-06T21:48:56.420Z,6.30
2022-12-06T21:51:31.627Z,6.30
2022-12-06T21:54:04.237Z,6.30
2022-12-06T21:56:38.540Z,6.30
2022-12-06T21:59:11.338Z,6.30
2022-12-06T22:01:44.056Z,6.30
2022-12-06T22:04:16.788Z,6.30
2022-12-06T22:06:50.755Z,6.30
2022-12-06T22:09:23.552Z,6.30
2022-12-06T22:11:56.414Z,6.20
2022-12-06T22:14:29.220Z,6.20
2022-12-06T22:17:01.814Z,6.30
2022-12-06T22:19:35.767Z,6.30
2022-12-06T22:22:08.515Z,6.30
2022-12-06T22:24:41.266Z,6.30
2022-12-06T22:27:14.003Z,6.40
2022-12-06T22:29:48.155Z,6.30
2022-12-06T22:32:20.974Z,6.30
2022-12-06T22:34:53.750Z,6.30
2022-12-06T22:37:28.642Z,6.20
2022-12-06T22:40:01.629Z,6.30
2022-12-06T22:42:35.142Z,6.20
2022-12-06T22:45:09.197Z,6.20
2022-12-06T22:47:41.762Z,6.20
2022-12-06T22:50:14.468Z,6.20
2022-12-06T22:52:48.033Z,6.30
2022-12-06T22:55:20.817Z,6.30
2022-12-06T22:57:53.932Z,6.30
2022-12-06T23:00:26.784Z,6.30
2022-12-06T23:02:59.667Z,6.30
2022-12-06T23:05:32.404Z,6.30
2022-12-06T23:08:05.431Z,6.40
2022-12-06T23:10:38.308Z,6.40
2022-12-06T23:13:10.987Z,6.30
2022-12-06T23:15:43.951Z,6.30
2022-12-06T23:18:18.881Z,6.30
2022-12-06T23:21:01.655Z,6.30
2022-12-06T23:23:35.080Z,6.30
2022-12-06T23:26:10.999Z,6.30
2022-12-06T23:28:43.888Z,6.40
2022-12-06T23:31:21.076Z,6.40
2022-12-06T23:33:57.586Z,6.40
2022-12-06T23:36:33.077Z,6.40
2022-12-06T23:39:06.703Z,6.40
2022-12-06T23:41:39.807Z,6.30
2022-12-06T23:44:13.641Z,6.30
2022-12-06T23:46:46.436Z,6.30
2022-12-06T23:49:21.355Z,6.30
2022-12-06T23:51:54.044Z,6.30
2022-12-06T23:54:26.747Z,6.20
2022-12-06T23:56:59.500Z,6.30
2022-12-06T23:59:32.410Z,6.30
